Time;durP1;ratioP1;P1;durP2;ratioP2;P2;SDS_P1;SDS_P2;PMS_P1;PMS_P2;Temp;Humidity;BMP_temperature;BMP_pressure;BME280_temperature;BME280_humidity;BME280_pressure;Samples;Min_cycle;Max_cycle;Signal;HPM_P1;HPM_P2
2021/12/15 00:02:22;;;;;;;3.28;2.42;;;22.00;48.60;;;;;;5066943;28;44091;-63
2021/12/15 00:04:52;;;;;;;3.60;2.70;;;22.00;48.60;;;;;;5063121;28;43448;-66
2021/12/15 00:07:21;;;;;;;3.47;2.15;;;22.00;48.70;;;;;;5065089;28;43991;-64
2021/12/15 00:09:48;;;;;;;3.88;2.67;;;22.00;48.70;;;;;;5042943;28;44652;-64
2021/12/15 00:12:17;;;;;;;3.00;2.20;;;22.00;48.70;;;;;;5062762;28;43413;-64
2021/12/15 00:14:46;;;;;;;3.13;2.20;;;21.90;48.60;;;;;;5052779;28;43496;-65
2021/12/15 00:17:14;;;;;;;4.00;2.30;;;21.90;48.70;;;;;;5046106;28;44874;-65
2021/12/15 00:19:42;;;;;;;4.57;2.42;;;21.90;48.70;;;;;;5057530;28;43474;-64
2021/12/15 00:22:09;;;;;;;4.55;2.70;;;21.90;48.70;;;;;;5052106;28;43477;-63
2021/12/15 00:24:38;;;;;;;3.42;2.22;;;21.90;48.80;;;;;;5065170;28;43498;-65
2021/12/15 00:27:06;;;;;;;3.17;2.40;;;21.90;48.80;;;;;;5064404;28;44054;-64
2021/12/15 00:29:34;;;;;;;2.72;2.20;;;21.90;48.80;;;;;;5046428;28;43478;-63
2021/12/15 00:32:03;;;;;;;4.53;2.40;;;21.90;48.80;;;;;;5067005;28;43531;-64
2021/12/15 00:34:34;;;;;;;3.95;2.60;;;21.90;48.70;;;;;;5068210;28;43525;-63
2021/12/15 00:37:02;;;;;;;3.15;2.13;;;21.90;48.80;;;;;;5056738;28;43758;-66
2021/12/15 00:39:30;;;;;;;3.40;2.55;;;21.90;48.80;;;;;;5061731;28;43756;-65
2021/12/15 00:41:58;;;;;;;4.38;2.30;;;21.80;48.80;;;;;;5056980;28;43448;-64
2021/12/15 00:44:25;;;;;;;3.50;2.53;;;21.80;48.80;;;;;;5056029;28;43499;-64
2021/12/15 00:46:53;;;;;;;4.03;2.42;;;21.80;48.80;;;;;;5067500;28;43834;-62
2021/12/15 00:49:22;;;;;;;3.72;2.53;;;21.80;48.80;;;;;;5067557;28;43860;-63
2021/12/15 00:51:51;;;;;;;3.53;2.35;;;21.80;48.80;;;;;;5068809;28;43514;-63
2021/12/15 00:54:18;;;;;;;2.83;2.30;;;21.80;48.80;;;;;;5034271;28;43572;-64
2021/12/15 00:56:46;;;;;;;3.20;2.13;;;21.80;48.80;;;;;;5066677;28;43820;-64
2021/12/15 00:59:13;;;;;;;3.90;2.60;;;21.80;48.70;;;;;;5067618;28;43722;-65
2021/12/15 01:01:41;;;;;;;3.40;2.42;;;21.80;48.80;;;;;;5067953;28;43497;-65
2021/12/15 01:04:13;;;;;;;;;;;21.80;48.80;;;;;;5056695;28;43432;-64
2021/12/15 01:06:44;;;;;;;4.70;2.58;;;21.70;48.80;;;;;;5072187;28;43777;-64
2021/12/15 01:09:17;;;;;;;4.10;2.28;;;21.70;48.90;;;;;;5053806;28;43509;-63
2021/12/15 01:19:58;;;;;;;3.67;2.25;;;21.70;48.90;;;;;;5057490;28;43491;-64
2021/12/15 01:22:31;;;;;;;3.60;2.40;;;21.70;48.90;;;;;;5063214;28;43415;-64
2021/12/15 01:25:05;;;;;;;4.10;2.63;;;21.70;48.90;;;;;;5050979;28;43452;-65
2021/12/15 01:27:33;;;;;;;3.22;2.67;;;21.70;48.90;;;;;;5034842;28;44033;-65
2021/12/15 01:30:04;;;;;;;3.47;2.47;;;21.70;48.90;;;;;;5044379;28;43502;-63
2021/12/15 01:32:31;;;;;;;3.90;2.70;;;21.60;48.90;;;;;;5038506;28;43441;-65
2021/12/15 01:34:59;;;;;;;3.15;2.67;;;21.60;48.90;;;;;;5067617;28;43482;-63
2021/12/15 01:37:27;;;;;;;3.00;2.28;;;21.60;48.90;;;;;;5064622;28;43837;-64
2021/12/15 01:39:55;;;;;;;3.58;2.35;;;21.60;48.90;;;;;;5043475;28;43498;-62
2021/12/15 01:42:31;;;;;;;3.63;2.40;;;21.60;48.90;;;;;;5045444;28;43420;-66
2021/12/15 01:47:45;;;;;;;3.50;2.40;;;21.60;49.00;;;;;;5042574;28;44783;-63
2021/12/15 01:50:14;;;;;;;3.53;2.40;;;21.60;48.90;;;;;;5047336;28;43485;-64
2021/12/15 01:52:42;;;;;;;3.50;2.42;;;21.60;49.00;;;;;;5065888;28;43549;-63
2021/12/15 01:55:14;;;;;;;2.75;2.10;;;21.60;49.00;;;;;;5067039;28;43454;-64
2021/12/15 01:57:43;;;;;;;3.20;2.30;;;21.60;49.00;;;;;;5065702;28;44767;-64
2021/12/15 02:00:31;;;;;;;2.75;2.20;;;21.60;49.00;;;;;;5048912;28;43636;-64
2021/12/15 02:03:00;;;;;;;3.95;2.45;;;21.60;49.00;;;;;;5063724;28;43513;-64
2021/12/15 02:05:30;;;;;;;2.53;2.33;;;21.60;49.00;;;;;;5064925;28;43463;-66
2021/12/15 02:07:59;;;;;;;3.83;2.65;;;21.50;49.00;;;;;;5066336;28;43789;-64
2021/12/15 02:10:30;;;;;;;3.42;2.33;;;21.50;49.00;;;;;;5067116;28;43539;-62
2021/12/15 02:13:03;;;;;;;2.70;2.50;;;21.50;49.00;;;;;;5033027;28;43479;-63
2021/12/15 02:15:38;;;;;;;3.17;2.60;;;21.50;49.00;;;;;;5033880;28;43374;-64
2021/12/15 02:18:08;;;;;;;3.10;2.50;;;21.50;49.00;;;;;;5036897;28;44727;-65
2021/12/15 02:20:42;;;;;;;3.67;2.70;;;21.50;49.00;;;;;;5062408;28;43506;-64
2021/12/15 02:23:13;;;;;;;4.40;2.42;;;21.50;49.00;;;;;;5040582;28;43395;-64
2021/12/15 02:25:41;;;;;;;2.90;2.35;;;21.50;49.10;;;;;;5066530;28;43529;-63
2021/12/15 02:28:08;;;;;;;3.28;2.42;;;21.50;49.00;;;;;;5049020;28;43818;-64
2021/12/15 02:30:53;;;;;;;4.50;2.60;;;21.50;49.00;;;;;;5030240;28;43578;-64
2021/12/15 02:38:51;;;;;;;3.25;2.58;;;21.40;49.10;;;;;;5031160;28;44056;-63
2021/12/15 02:41:23;;;;;;;4.18;2.80;;;21.40;49.10;;;;;;5039638;28;43483;-64
2021/12/15 02:43:54;;;;;;;2.80;2.58;;;21.50;49.10;;;;;;5035789;28;43577;-64
2021/12/15 02:46:24;;;;;;;3.00;2.58;;;21.40;49.00;;;;;;5054234;28;43486;-64
2021/12/15 02:48:51;;;;;;;4.15;2.80;;;21.40;49.10;;;;;;5064067;28;44930;-63
2021/12/15 02:51:20;;;;;;;3.38;2.53;;;21.40;49.10;;;;;;5067595;28;43495;-65
2021/12/15 02:53:49;;;;;;;3.53;2.53;;;21.40;49.10;;;;;;5065829;28;43448;-63
2021/12/15 02:56:16;;;;;;;3.35;2.92;;;21.40;49.10;;;;;;5065900;28;43499;-64
2021/12/15 02:58:52;;;;;;;4.38;2.85;;;21.40;49.20;;;;;;5064390;28;44644;-64
2021/12/15 03:01:33;;;;;;;4.15;2.90;;;21.40;49.10;;;;;;5049141;28;43505;-65
2021/12/15 03:04:25;;;;;;;3.55;2.70;;;21.40;49.20;;;;;;5043707;28;43486;-63
2021/12/15 03:07:03;;;;;;;3.10;2.63;;;21.40;49.10;;;;;;5069692;28;43399;-65
2021/12/15 03:15:20;;;;;;;3.20;2.75;;;21.40;49.20;;;;;;5063491;28;44068;-65
2021/12/15 03:17:57;;;;;;;3.72;3.15;;;21.30;49.20;;;;;;5071671;28;43969;-64
2021/12/15 03:20:31;;;;;;;3.90;3.13;;;21.30;49.20;;;;;;5066107;28;43875;-64
2021/12/15 03:23:00;;;;;;;2.97;2.63;;;21.30;49.20;;;;;;5036924;28;44004;-63
2021/12/15 03:25:30;;;;;;;3.78;2.90;;;21.30;49.20;;;;;;5064606;28;43380;-64
2021/12/15 03:36:13;;;;;;;4.03;3.13;;;21.20;49.20;;;;;;5064802;28;43486;-65
2021/12/15 03:38:42;;;;;;;4.30;3.17;;;21.30;49.30;;;;;;5059462;28;43484;-64
2021/12/15 03:41:11;;;;;;;3.47;2.92;;;21.20;49.20;;;;;;5046991;28;44664;-65
2021/12/15 03:43:39;;;;;;;4.00;3.05;;;21.20;49.20;;;;;;5061637;28;43951;-64
2021/12/15 03:46:12;;;;;;;4.82;3.45;;;21.20;49.20;;;;;;5065236;28;43427;-65
2021/12/15 03:48:42;;;;;;;4.65;3.15;;;21.20;49.30;;;;;;5067815;28;43615;-65
2021/12/15 03:51:13;;;;;;;4.85;3.15;;;21.20;49.20;;;;;;5052588;28;43777;-65
2021/12/15 03:53:42;;;;;;;4.90;3.45;;;21.20;49.30;;;;;;5064195;28;43990;-64
2021/12/15 03:56:13;;;;;;;3.83;3.25;;;21.20;49.20;;;;;;5065495;28;43420;-65
2021/12/15 03:58:40;;;;;;;4.07;3.30;;;21.20;49.30;;;;;;5065167;28;43444;-62
2021/12/15 04:01:12;;;;;;;5.70;3.60;;;21.20;49.30;;;;;;5060833;28;43809;-63
2021/12/15 04:03:42;;;;;;;4.43;3.53;;;21.20;49.30;;;;;;5063048;28;43422;-63
2021/12/15 04:06:15;;;;;;;4.17;3.00;;;21.20;49.40;;;;;;5067134;28;43458;-62
2021/12/15 04:08:42;;;;;;;4.15;3.22;;;21.20;49.30;;;;;;5067165;28;44011;-63
2021/12/15 04:11:13;;;;;;;3.55;3.15;;;21.10;49.30;;;;;;5068160;28;44985;-63
2021/12/15 04:13:46;;;;;;;4.13;3.22;;;21.10;49.30;;;;;;5064581;28;43449;-64
2021/12/15 04:19:01;;;;;;;5.20;3.40;;;21.10;49.30;;;;;;5053260;28;43466;-62
2021/12/15 04:21:29;;;;;;;3.78;3.28;;;21.10;49.30;;;;;;5056585;28;43803;-61
2021/12/15 04:23:58;;;;;;;4.38;3.60;;;21.10;49.30;;;;;;5056918;28;43446;-63
2021/12/15 04:26:26;;;;;;;4.40;3.55;;;21.10;49.30;;;;;;5067445;28;43469;-62
2021/12/15 04:28:54;;;;;;;3.58;3.10;;;21.10;49.30;;;;;;5067418;28;43455;-62
2021/12/15 04:31:26;;;;;;;4.07;3.60;;;21.10;49.30;;;;;;5064900;28;43846;-61
2021/12/15 04:34:04;;;;;;;3.95;3.42;;;21.10;49.30;;;;;;5069133;28;44009;-61
2021/12/15 04:36:40;;;;;;;3.97;3.50;;;21.10;49.30;;;;;;5061229;28;43466;-64
2021/12/15 04:39:10;;;;;;;4.80;4.07;;;21.10;49.30;;;;;;5056554;28;43497;-62
2021/12/15 04:41:40;;;;;;;4.32;3.90;;;21.00;49.30;;;;;;5064415;28;44733;-62
2021/12/15 04:44:11;;;;;;;4.70;3.90;;;21.00;49.30;;;;;;5068800;28;43507;-63
2021/12/15 04:46:46;;;;;;;4.85;3.20;;;21.00;49.30;;;;;;5069274;28;43453;-63
2021/12/15 04:49:17;;;;;;;4.43;3.80;;;21.00;49.30;;;;;;5056850;28;43930;-61
2021/12/15 04:51:47;;;;;;;4.05;3.58;;;21.10;49.40;;;;;;5060877;28;43570;-63
2021/12/15 04:54:16;;;;;;;4.20;3.80;;;21.00;49.30;;;;;;5059127;28;43485;-63
2021/12/15 04:56:44;;;;;;;4.18;3.30;;;21.00;49.30;;;;;;5062383;28;43477;-62
2021/12/15 04:59:13;;;;;;;4.35;3.50;;;21.00;49.30;;;;;;5065672;28;43488;-64
2021/12/15 05:01:40;;;;;;;3.70;3.20;;;21.00;49.40;;;;;;5066843;28;44683;-64
2021/12/15 05:04:08;;;;;;;4.03;3.38;;;21.00;49.40;;;;;;5066532;28;43488;-64
2021/12/15 05:06:35;;;;;;;3.95;3.53;;;21.00;49.50;;;;;;5071566;28;43462;-64
2021/12/15 05:09:05;;;;;;;4.45;3.60;;;21.00;49.40;;;;;;5058002;28;43501;-63
2021/12/15 05:11:35;;;;;;;3.55;3.20;;;21.00;49.40;;;;;;5067317;28;44711;-63
2021/12/15 05:14:04;;;;;;;4.82;3.20;;;21.00;49.40;;;;;;5064400;28;43918;-63
2021/12/15 05:16:31;;;;;;;3.83;3.20;;;21.00;49.40;;;;;;5066008;28;43432;-63
2021/12/15 05:18:59;;;;;;;4.13;3.22;;;20.90;49.40;;;;;;5067799;28;43605;-64
2021/12/15 05:21:29;;;;;;;4.10;3.20;;;21.00;49.40;;;;;;5067091;28;43794;-62
2021/12/15 05:24:02;;;;;;;4.45;3.50;;;21.00;49.30;;;;;;5048277;28;44078;-62
2021/12/15 05:26:30;;;;;;;3.70;3.10;;;21.00;49.30;;;;;;5067076;28;43444;-63
2021/12/15 05:28:58;;;;;;;4.20;3.25;;;21.00;49.30;;;;;;5058593;28;43563;-63
2021/12/15 05:31:25;;;;;;;4.63;3.22;;;21.00;49.30;;;;;;5049102;28;44859;-64
2021/12/15 05:33:53;;;;;;;4.00;3.30;;;21.00;49.30;;;;;;5066999;28;43508;-63
2021/12/15 05:36:22;;;;;;;3.88;2.90;;;21.00;49.30;;;;;;5067005;28;43379;-63
2021/12/15 05:38:49;;;;;;;4.25;3.42;;;21.00;49.30;;;;;;5044718;28;43478;-63
2021/12/15 05:41:17;;;;;;;4.78;3.40;;;20.90;49.30;;;;;;5066581;28;43753;-64
2021/12/15 05:43:45;;;;;;;3.60;3.10;;;20.90;49.30;;;;;;5059324;28;43990;-63
2021/12/15 05:46:12;;;;;;;4.60;3.55;;;21.00;49.40;;;;;;5062451;28;43469;-63
2021/12/15 05:48:40;;;;;;;3.28;2.97;;;20.90;49.30;;;;;;5066555;28;44107;-63
2021/12/15 05:51:08;;;;;;;3.95;3.10;;;21.00;49.30;;;;;;5048194;28;43935;-62
2021/12/15 05:53:35;;;;;;;3.67;2.95;;;20.90;49.30;;;;;;5066173;28;43403;-63
2021/12/15 05:56:03;;;;;;;3.40;2.85;;;20.90;49.30;;;;;;5065962;28;43442;-64
2021/12/15 05:58:32;;;;;;;4.63;3.20;;;20.90;49.30;;;;;;5068130;28;43449;-64
2021/12/15 06:01:00;;;;;;;3.95;3.20;;;20.90;49.30;;;;;;5060265;28;43794;-63
2021/12/15 06:03:27;;;;;;;3.60;3.15;;;20.90;49.30;;;;;;5066073;28;43418;-63
2021/12/15 06:05:55;;;;;;;2.97;2.70;;;20.90;49.30;;;;;;5064915;28;43690;-64
2021/12/15 06:08:23;;;;;;;3.35;2.90;;;20.90;49.30;;;;;;5065284;28;43449;-63
2021/12/15 06:10:50;;;;;;;4.78;3.20;;;20.90;49.40;;;;;;5066051;28;43775;-64
2021/12/15 06:13:22;;;;;;;5.35;3.40;;;20.90;49.50;;;;;;5066261;28;43714;-64
2021/12/15 06:15:50;;;;;;;3.88;3.03;;;20.90;49.40;;;;;;5065302;28;43432;-63
2021/12/15 06:18:20;;;;;;;3.75;3.20;;;20.90;49.40;;;;;;5067522;28;43581;-64
2021/12/15 06:20:50;;;;;;;3.85;2.80;;;20.90;49.40;;;;;;5058903;28;43795;-64
2021/12/15 06:23:20;;;;;;;3.65;2.78;;;20.90;49.40;;;;;;5041141;28;43815;-64
2021/12/15 06:25:55;;;;;;;3.30;2.92;;;20.90;49.40;;;;;;5067583;28;43427;-64
2021/12/15 06:28:25;;;;;;;4.03;2.90;;;20.90;49.50;;;;;;5066655;28;43555;-63
2021/12/15 06:30:53;;;;;;;4.90;3.38;;;20.80;49.50;;;;;;5061796;28;43847;-64
2021/12/15 06:33:22;;;;;;;3.95;3.00;;;20.80;49.50;;;;;;5054129;28;43500;-63
2021/12/15 06:35:57;;;;;;;4.75;3.30;;;20.80;49.30;;;;;;5037555;28;43389;-64
2021/12/15 06:38:29;;;;;;;3.40;2.80;;;20.80;49.50;;;;;;5049976;28;43392;-64
2021/12/15 06:40:58;;;;;;;3.85;3.08;;;20.80;49.50;;;;;;5032073;28;43945;-64
2021/12/15 06:43:27;;;;;;;3.38;3.08;;;20.90;49.50;;;;;;5063889;28;43937;-62
2021/12/15 06:59:46;;;;;;;3.40;2.75;;;20.90;49.40;;;;;;5064376;28;43423;-64
2021/12/15 07:02:15;;;;;;;4.32;3.05;;;20.90;49.40;;;;;;5065879;28;44090;-62
2021/12/15 07:04:43;;;;;;;4.28;3.10;;;20.90;49.40;;;;;;5064493;28;43877;-63
2021/12/15 07:07:10;;;;;;;3.38;2.90;;;20.90;49.30;;;;;;5072346;28;43495;-61
2021/12/15 07:09:38;;;;;;;4.07;2.70;;;20.90;49.30;;;;;;5015786;28;43536;-63
2021/12/15 07:12:06;;;;;;;5.25;3.03;;;20.90;49.50;;;;;;5065412;28;44668;-62
2021/12/15 07:14:34;;;;;;;3.38;2.95;;;20.90;49.40;;;;;;5064780;28;43458;-63
2021/12/15 07:17:08;;;;;;;4.45;3.10;;;20.90;49.30;;;;;;5073529;28;43477;-64
2021/12/15 07:20:02;;;;;;;3.55;2.90;;;20.90;49.30;;;;;;5047527;28;43984;-62
2021/12/15 07:22:43;;;;;;;3.85;3.05;;;20.90;49.40;;;;;;5065004;28;44691;-64
2021/12/15 07:25:13;;;;;;;3.85;2.70;;;20.90;49.40;;;;;;5034962;28;43844;-64
2021/12/15 07:27:41;;;;;;;3.80;2.78;;;20.90;49.30;;;;;;5048860;28;43382;-62
2021/12/15 07:30:11;;;;;;;3.65;3.05;;;20.90;49.30;;;;;;5053677;28;43538;-63
2021/12/15 07:32:39;;;;;;;3.67;3.30;;;20.90;49.30;;;;;;5063818;28;44672;-64
2021/12/15 07:35:08;;;;;;;3.72;2.88;;;20.90;49.30;;;;;;5031643;28;43727;-63
2021/12/15 07:37:36;;;;;;;3.80;3.00;;;20.90;49.40;;;;;;5030871;28;43455;-63
2021/12/15 07:40:11;;;;;;;3.42;2.80;;;20.90;49.30;;;;;;5060020;28;43407;-63
2021/12/15 07:42:54;;;;;;;3.78;3.00;;;20.90;49.30;;;;;;5055196;28;44953;-61
2021/12/15 07:45:24;;;;;;;5.25;2.95;;;20.90;49.30;;;;;;5061088;28;43463;-64
2021/12/15 07:47:54;;;;;;;3.40;3.10;;;20.90;49.30;;;;;;5065140;28;43600;-64
2021/12/15 07:50:23;;;;;;;4.43;3.28;;;20.90;49.30;;;;;;5066684;28;43495;-63
2021/12/15 07:52:51;;;;;;;5.80;3.20;;;20.90;49.40;;;;;;5050563;28;43999;-64
2021/12/15 07:55:20;;;;;;;3.88;2.90;;;20.90;49.30;;;;;;5055735;28;43568;-62
2021/12/15 07:57:50;;;;;;;4.20;2.85;;;20.90;49.30;;;;;;5026461;28;43429;-62
2021/12/15 08:00:18;;;;;;;4.13;2.88;;;21.00;49.40;;;;;;5035175;28;44077;-63
2021/12/15 08:02:46;;;;;;;3.67;2.95;;;20.90;49.40;;;;;;5053204;28;43793;-61
2021/12/15 08:05:14;;;;;;;3.78;3.10;;;20.90;50.00;;;;;;5047912;28;43662;-62
2021/12/15 08:07:42;;;;;;;3.58;2.85;;;21.00;49.60;;;;;;5035069;28;43645;-63
2021/12/15 08:10:12;;;;;;;3.38;3.00;;;21.00;49.60;;;;;;5052818;28;44100;-62
2021/12/15 08:12:42;;;;;;;4.07;3.00;;;21.00;49.60;;;;;;5054284;28;44171;-63
2021/12/15 08:15:10;;;;;;;3.57;2.90;;;21.00;49.60;;;;;;5048806;28;43498;-62
2021/12/15 08:17:40;;;;;;;3.30;2.90;;;21.00;49.60;;;;;;5055958;28;44853;-62
2021/12/15 08:20:10;;;;;;;3.60;3.00;;;21.00;49.60;;;;;;5058603;28;44312;-63
2021/12/15 08:22:39;;;;;;;3.95;3.10;;;21.00;49.60;;;;;;5051525;28;45143;-63
2021/12/15 08:25:08;;;;;;;4.20;3.00;;;21.10;49.60;;;;;;5056638;28;44243;-63
2021/12/15 08:27:36;;;;;;;2.95;2.65;;;21.10;49.50;;;;;;5051469;28;43546;-62
2021/12/15 08:30:07;;;;;;;2.88;2.67;;;21.10;49.50;;;;;;5049773;28;43523;-62
2021/12/15 08:32:35;;;;;;;;;;;21.10;49.50;;;;;;5055651;28;44700;-61
2021/12/15 08:35:03;;;;;;;3.35;2.72;;;21.10;49.50;;;;;;5053639;28;43560;-62
2021/12/15 08:37:31;;;;;;;4.97;2.70;;;21.20;49.50;;;;;;5052925;28;44593;-63
2021/12/15 08:39:59;;;;;;;4.20;3.13;;;21.20;49.50;;;;;;5047320;28;43555;-63
2021/12/15 08:42:29;;;;;;;4.00;2.67;;;21.20;49.40;;;;;;5053633;28;44071;-63
2021/12/15 08:44:57;;;;;;;4.10;2.85;;;21.20;50.10;;;;;;5054860;28;44016;-62
2021/12/15 08:47:24;;;;;;;4.07;2.55;;;21.20;49.40;;;;;;5058633;28;44173;-63
2021/12/15 08:49:53;;;;;;;3.40;2.50;;;21.20;49.40;;;;;;5054157;28;43552;-63
2021/12/15 08:52:20;;;;;;;5.05;3.03;;;21.30;49.40;;;;;;5062001;28;43756;-63
2021/12/15 08:54:48;;;;;;;4.22;2.80;;;21.30;49.30;;;;;;5053390;28;43692;-62
2021/12/15 08:57:15;;;;;;;3.63;2.65;;;21.30;49.30;;;;;;5054241;28;43521;-62
2021/12/15 08:59:43;;;;;;;2.47;2.22;;;21.30;49.30;;;;;;5053136;28;44403;-62
2021/12/15 09:02:11;;;;;;;3.83;2.60;;;21.30;49.30;;;;;;5053597;28;44950;-62
2021/12/15 09:04:39;;;;;;;4.22;2.42;;;21.30;49.30;;;;;;5054709;28;44284;-61
2021/12/15 09:07:07;;;;;;;2.80;2.20;;;21.30;49.30;;;;;;5058648;28;43549;-61
2021/12/15 09:09:34;;;;;;;3.00;2.20;;;21.40;49.30;;;;;;5053525;28;43589;-61
2021/12/15 09:12:04;;;;;;;4.40;2.97;;;21.40;49.30;;;;;;5062779;28;44042;-61
2021/12/15 09:14:32;;;;;;;4.05;2.50;;;21.40;49.30;;;;;;5036795;28;43942;-63
2021/12/15 09:17:00;;;;;;;2.83;2.35;;;21.40;49.30;;;;;;5050767;28;43628;-62
2021/12/15 09:19:28;;;;;;;4.22;3.00;;;21.50;49.30;;;;;;5062731;28;43699;-62
2021/12/15 09:21:57;;;;;;;3.60;2.70;;;21.50;49.30;;;;;;5056097;28;45282;-62
2021/12/15 09:24:25;;;;;;;3.55;2.67;;;21.50;49.20;;;;;;5056197;28;43634;-63
2021/12/15 09:26:55;;;;;;;4.28;2.33;;;21.50;49.20;;;;;;5058440;28;44831;-62
2021/12/15 09:29:23;;;;;;;2.75;2.35;;;21.50;49.30;;;;;;5056830;28;43916;-63
2021/12/15 09:31:51;;;;;;;3.33;2.40;;;21.50;49.30;;;;;;5055871;28;44283;-63
2021/12/15 09:34:18;;;;;;;3.20;2.40;;;21.50;49.90;;;;;;5051661;28;43563;-64
2021/12/15 09:36:49;;;;;;;4.93;2.38;;;21.50;49.30;;;;;;5052174;28;43565;-62
2021/12/15 09:39:19;;;;;;;2.60;2.40;;;21.60;49.30;;;;;;5053614;28;43568;-63
2021/12/15 09:41:49;;;;;;;2.55;2.30;;;21.60;49.30;;;;;;5052058;28;43813;-63
2021/12/15 09:44:21;;;;;;;3.28;2.50;;;21.60;49.30;;;;;;5059625;28;43646;-63
2021/12/15 10:03:34;;;;;;;3.60;2.80;;;21.70;49.30;;;;;;5035605;28;43565;-62
2021/12/15 10:19:51;;;;;;;2.15;1.95;;;21.80;49.10;;;;;;5057466;28;43731;-63
2021/12/15 10:22:34;;;;;;;2.95;2.30;;;21.80;49.10;;;;;;5058012;28;43637;-63
2021/12/15 10:25:31;;;;;;;2.85;2.00;;;21.80;49.10;;;;;;5062975;28;45020;-61
2021/12/15 10:28:09;;;;;;;2.85;2.03;;;21.80;49.10;;;;;;5059335;28;43585;-62
2021/12/15 10:30:39;;;;;;;2.65;2.20;;;21.80;49.10;;;;;;5033096;28;43599;-62
2021/12/15 10:33:15;;;;;;;2.60;2.00;;;21.80;49.10;;;;;;5058264;28;44603;-62
2021/12/15 10:35:44;;;;;;;2.35;1.98;;;21.80;49.10;;;;;;5038802;28;44159;-62
2021/12/15 10:38:20;;;;;;;2.28;1.90;;;21.90;49.00;;;;;;5052746;28;43792;-63
2021/12/15 10:41:03;;;;;;;3.20;2.22;;;21.90;48.90;;;;;;5036838;28;43572;-62
2021/12/15 10:43:45;;;;;;;2.90;1.80;;;21.90;48.90;;;;;;5055647;28;43530;-63
2021/12/15 10:46:17;;;;;;;2.65;1.95;;;21.90;48.90;;;;;;5042251;28;45044;-62
2021/12/15 10:48:58;;;;;;;3.78;2.20;;;22.00;48.90;;;;;;5035766;28;44171;-63
2021/12/15 10:51:48;;;;;;;2.53;2.33;;;22.00;48.90;;;;;;5048446;28;43635;-63
2021/12/15 10:54:23;;;;;;;2.00;1.80;;;22.00;49.00;;;;;;5043965;28;43698;-65
2021/12/15 10:57:00;;;;;;;2.92;2.00;;;22.00;49.00;;;;;;5026514;28;44249;-63
2021/12/15 10:59:31;;;;;;;3.40;2.05;;;22.00;48.90;;;;;;5049051;28;43681;-63
2021/12/15 11:02:05;;;;;;;2.63;1.70;;;22.00;48.90;;;;;;5050760;28;44131;-63
2021/12/15 11:04:39;;;;;;;3.03;1.90;;;22.00;48.80;;;;;;5026532;28;43584;-63
2021/12/15 11:07:14;;;;;;;3.65;1.90;;;22.00;48.90;;;;;;5007213;28;44078;-63
2021/12/15 11:09:52;;;;;;;3.55;1.80;;;22.00;48.90;;;;;;5004927;28;43796;-62
2021/12/15 11:12:31;;;;;;;2.50;1.60;;;22.00;48.90;;;;;;5006808;28;43551;-63
2021/12/15 11:15:00;;;;;;;2.63;1.83;;;22.10;48.90;;;;;;5003531;28;43606;-63
2021/12/15 11:17:34;;;;;;;2.92;1.90;;;22.10;48.90;;;;;;5008238;28;43922;-62
2021/12/15 11:20:22;;;;;;;2.20;1.60;;;22.10;48.90;;;;;;5019148;28;43754;-63
2021/12/15 11:22:55;;;;;;;2.53;1.80;;;22.10;48.90;;;;;;5005050;28;44718;-63
2021/12/15 11:25:49;;;;;;;3.35;1.70;;;22.20;48.90;;;;;;5000320;28;43710;-63
2021/12/15 11:28:24;;;;;;;3.47;1.60;;;22.20;48.90;;;;;;5006537;28;44179;-62
2021/12/15 11:31:18;;;;;;;2.42;1.73;;;22.20;48.90;;;;;;5009365;28;44705;-63
2021/12/15 11:33:56;;;;;;;2.17;1.73;;;22.20;48.80;;;;;;5005257;28;43711;-64
2021/12/15 11:36:26;;;;;;;2.45;1.60;;;22.20;48.80;;;;;;5005851;28;43643;-64
2021/12/15 11:39:03;;;;;;;3.35;1.60;;;22.30;48.80;;;;;;5007018;28;43640;-62
2021/12/15 11:41:40;;;;;;;2.40;1.90;;;22.30;48.80;;;;;;5005096;28;43706;-63
2021/12/15 11:44:12;;;;;;;3.10;2.08;;;22.30;48.80;;;;;;4988892;28;43521;-63
2021/12/15 11:46:44;;;;;;;2.60;1.80;;;22.40;48.80;;;;;;5006035;28;43635;-63
2021/12/15 11:49:13;;;;;;;;;;;22.40;48.70;;;;;;5008436;28;43831;-64
2021/12/15 11:51:50;;;;;;;3.05;1.60;;;22.40;48.70;;;;;;5006435;28;43640;-64
2021/12/15 11:54:20;;;;;;;3.58;1.70;;;22.40;48.80;;;;;;5004469;28;43609;-64
2021/12/15 11:56:51;;;;;;;1.98;1.65;;;22.40;48.80;;;;;;5004370;28;43646;-64
2021/12/15 11:59:42;;;;;;;2.50;1.80;;;22.40;48.70;;;;;;5003646;28;43792;-63
2021/12/15 12:02:24;;;;;;;2.80;1.40;;;22.40;48.70;;;;;;5004057;28;43662;-62
2021/12/15 12:04:58;;;;;;;2.40;1.60;;;22.40;48.70;;;;;;5020438;28;43563;-63
2021/12/15 12:07:34;;;;;;;1.85;1.30;;;22.50;48.70;;;;;;5058523;28;43727;-63
2021/12/15 12:10:08;;;;;;;1.65;1.27;;;22.50;48.70;;;;;;5050411;28;43710;-63
2021/12/15 12:12:48;;;;;;;1.83;1.70;;;22.50;48.70;;;;;;5055300;28;43982;-64
2021/12/15 12:15:18;;;;;;;2.38;1.70;;;22.50;48.60;;;;;;5055547;28;43566;-64
2021/12/15 12:17:49;;;;;;;1.42;1.33;;;22.50;48.60;;;;;;5036836;28;43607;-63
2021/12/15 12:20:24;;;;;;;2.30;1.60;;;22.60;48.60;;;;;;5041995;28;43611;-63
2021/12/15 12:22:59;;;;;;;1.60;1.50;;;22.60;48.60;;;;;;5057501;28;43702;-64
2021/12/15 12:25:39;;;;;;;2.20;1.60;;;22.60;48.50;;;;;;5038488;28;43726;-64
2021/12/15 12:28:10;;;;;;;1.80;1.65;;;22.70;48.40;;;;;;5056807;28;43612;-63
2021/12/15 12:30:45;;;;;;;2.15;1.50;;;22.70;48.40;;;;;;5060819;28;44699;-63
2021/12/15 12:33:14;;;;;;;2.53;1.60;;;22.70;48.40;;;;;;5059763;28;43483;-64
2021/12/15 12:35:45;;;;;;;2.33;1.67;;;22.70;48.40;;;;;;5052723;28;43623;-63
2021/12/15 12:38:20;;;;;;;2.38;1.40;;;22.70;48.30;;;;;;5047722;28;43585;-63
2021/12/15 12:41:05;;;;;;;2.53;1.73;;;22.80;48.30;;;;;;5036755;28;46879;-64
2021/12/15 12:43:41;;;;;;;2.42;1.70;;;22.90;48.30;;;;;;5047666;28;43665;-63
2021/12/15 12:46:24;;;;;;;1.60;1.35;;;22.80;48.30;;;;;;5050012;28;43615;-63
2021/12/15 13:00:25;;;;;;;1.97;1.53;;;22.90;48.00;;;;;;5053036;28;43655;-63
2021/12/15 13:03:09;;;;;;;1.55;1.40;;;22.90;48.10;;;;;;5048913;28;44320;-63
2021/12/15 13:05:48;;;;;;;2.13;1.40;;;22.90;48.00;;;;;;5053906;28;43594;-63
2021/12/15 13:08:29;;;;;;;2.45;1.40;;;22.90;47.80;;;;;;5052182;28;43695;-64
2021/12/15 13:11:02;;;;;;;2.40;1.50;;;22.90;47.70;;;;;;5032764;28;44896;-64
2021/12/15 13:13:34;;;;;;;1.88;1.40;;;22.90;47.80;;;;;;5053555;28;45036;-65
2021/12/15 13:16:04;;;;;;;1.63;1.30;;;22.90;47.70;;;;;;5051808;28;44940;-63
2021/12/15 13:18:48;;;;;;;1.80;1.23;;;22.90;47.60;;;;;;5053217;28;43589;-63
2021/12/15 13:21:21;;;;;;;1.77;1.15;;;22.90;47.50;;;;;;5041108;28;43638;-64
2021/12/15 13:23:57;;;;;;;1.95;1.20;;;22.90;47.60;;;;;;5053068;28;44225;-64
2021/12/15 13:29:51;;;;;;;1.75;1.17;;;22.90;47.40;;;;;;5055166;28;43612;-64
2021/12/15 13:32:26;;;;;;;1.77;1.27;;;22.90;47.60;;;;;;5053011;28;43638;-64
2021/12/15 13:34:53;;;;;;;2.65;1.30;;;22.90;47.50;;;;;;5051563;28;43785;-63
2021/12/15 13:37:52;;;;;;;1.85;1.13;;;22.90;48.00;;;;;;5056329;28;43994;-64
2021/12/15 13:40:57;;;;;;;1.20;1.10;;;22.90;47.30;;;;;;5055584;28;44147;-63
2021/12/15 13:43:43;;;;;;;1.48;1.10;;;22.90;47.30;;;;;;5051365;28;43705;-63
2021/12/15 13:46:36;;;;;;;1.85;0.95;;;22.90;47.50;;;;;;5059757;28;43799;-63
2021/12/15 13:49:17;;;;;;;2.40;1.20;;;22.90;45.20;;;;;;5052610;28;43635;-64
2021/12/15 13:52:08;;;;;;;5.18;1.23;;;22.80;46.30;;;;;;5055150;28;43626;-64
2021/12/15 13:54:35;;;;;;;1.27;0.90;;;22.80;46.70;;;;;;5058084;28;44202;-64
2021/12/15 13:57:12;;;;;;;1.98;1.20;;;22.80;46.80;;;;;;5058922;28;43800;-64
2021/12/15 13:59:41;;;;;;;1.00;0.90;;;22.80;46.80;;;;;;5050772;28;43986;-64
2021/12/15 14:02:26;;;;;;;2.22;1.15;;;22.80;46.80;;;;;;5055631;28;43587;-63
2021/12/15 14:05:15;;;;;;;1.35;0.93;;;22.90;47.00;;;;;;5059603;28;43672;-65
2021/12/15 14:07:58;;;;;;;2.22;1.05;;;22.90;47.00;;;;;;5060022;28;43821;-64
2021/12/15 14:10:25;;;;;;;1.25;1.10;;;23.00;47.10;;;;;;5043198;28;43930;-64
2021/12/15 14:12:57;;;;;;;1.85;1.10;;;23.00;47.10;;;;;;5049164;28;43578;-65
2021/12/15 14:15:41;;;;;;;2.78;1.30;;;23.00;47.00;;;;;;5049042;28;43570;-64
2021/12/15 14:18:23;;;;;;;1.77;1.08;;;23.00;47.00;;;;;;5048317;28;43617;-64
2021/12/15 14:20:55;;;;;;;1.40;0.90;;;23.00;47.00;;;;;;5044337;28;43550;-63
2021/12/15 14:23:46;;;;;;;1.92;0.95;;;23.00;46.90;;;;;;5054463;28;44141;-64
2021/12/15 14:26:33;;;;;;;1.48;0.90;;;23.00;46.80;;;;;;5043819;28;43656;-64
2021/12/15 14:29:09;;;;;;;1.75;0.95;;;23.00;46.90;;;;;;5049286;28;43620;-63
2021/12/15 14:31:42;;;;;;;0.77;0.75;;;23.00;47.00;;;;;;5046836;28;43530;-65
2021/12/15 14:34:17;;;;;;;1.20;0.73;;;23.00;47.00;;;;;;5046848;28;43649;-63
2021/12/15 14:36:53;;;;;;;1.00;0.90;;;23.10;47.00;;;;;;5046062;28;44443;-63
2021/12/15 14:39:28;;;;;;;2.05;0.90;;;23.00;46.90;;;;;;5023151;28;44744;-63
2021/12/15 14:42:04;;;;;;;1.10;0.90;;;23.10;47.00;;;;;;5044764;28;43733;-63
2021/12/15 14:44:38;;;;;;;1.45;0.90;;;23.00;47.00;;;;;;5050720;28;44684;-63
2021/12/15 14:47:11;;;;;;;1.88;1.20;;;23.10;47.00;;;;;;5046083;28;44837;-64